KGHG

Marshfield Municipal - George Harlow Field Airport

Marshfield, Massachusetts, USA
METAR KGHG 241215Z AUTO VRB04KT 10SM CLR 06/05 A3008 RMK AO2
Observed Flight Rules
Feb-24 @ 12:15 UTC (5 minutes ago) Visual Flight Rules
Wind Visibility Clouds
Variable at 4 knots 10 miles
  • Clear skies
Temperatures Readings
Current 6°C / 43°F
Dewpoint 5°C / 41°F
Humidity 93%
Altimeter 30.08" Hg
Pressure 1019 hPa
Elevation 4
METAR KGHG 241215Z AUTO VRB04KT 10SM CLR 06/05 A3008 RMK AO2
Observed Flight Rules
Feb-24 @ 12:15 UTC
(5 minutes ago)
VFR
Wind Visibility
Variable at 4 knots 10 miles
Clouds
  • Clear skies
Temperature Dewpoint
6°C / 43°F 5°C / 41°F
Humidity Altimeter Pressure
93% 30.08" Hg 1019 hPa